sensor_id;sensor_type;location;lat;lon;timestamp;pressure;altitude;pressure_sealevel;temperature;humidity
22047;BME280;11187;49.412;20.956;2022-08-06T00:00:10;95059.13;;;18.30;96.80
22047;BME280;11187;49.412;20.956;2022-08-06T00:02:52;95056.84;;;18.24;97.33
22047;BME280;11187;49.412;20.956;2022-08-06T00:05:39;95051.06;;;18.19;97.54
22047;BME280;11187;49.412;20.956;2022-08-06T00:08:17;95050.41;;;18.14;97.46
22047;BME280;11187;49.412;20.956;2022-08-06T00:11:05;95048.03;;;18.09;98.20
22047;BME280;11187;49.412;20.956;2022-08-06T00:13:39;95039.66;;;18.04;97.80
22047;BME280;11187;49.412;20.956;2022-08-06T00:16:26;95046.69;;;18.02;98.17
22047;BME280;11187;49.412;20.956;2022-08-06T00:19:04;95056.28;;;18.00;97.95
22047;BME280;11187;49.412;20.956;2022-08-06T00:21:57;95050.41;;;17.97;98.33
22047;BME280;11187;49.412;20.956;2022-08-06T00:24:30;95050.63;;;17.92;98.12
22047;BME280;11187;49.412;20.956;2022-08-06T00:27:24;95048.94;;;17.91;97.97
22047;BME280;11187;49.412;20.956;2022-08-06T00:30:21;95050.00;;;17.87;97.96
22047;BME280;11187;49.412;20.956;2022-08-06T00:32:54;95051.75;;;17.86;98.04
22047;BME280;11187;49.412;20.956;2022-08-06T00:35:49;95055.47;;;17.81;98.65
22047;BME280;11187;49.412;20.956;2022-08-06T00:38:25;95047.06;;;17.75;98.59
22047;BME280;11187;49.412;20.956;2022-08-06T00:41:12;95049.72;;;17.74;98.47
22047;BME280;11187;49.412;20.956;2022-08-06T00:43:48;95048.88;;;17.73;98.90
22047;BME280;11187;49.412;20.956;2022-08-06T00:46:36;95048.88;;;17.73;98.65
22047;BME280;11187;49.412;20.956;2022-08-06T00:49:10;95050.63;;;17.73;98.66
22047;BME280;11187;49.412;20.956;2022-08-06T00:52:17;95049.94;;;17.69;99.27
22047;BME280;11187;49.412;20.956;2022-08-06T00:54:52;95046.66;;;17.66;98.84
22047;BME280;11187;49.412;20.956;2022-08-06T00:57:39;95047.59;;;17.65;98.99
22047;BME280;11187;49.412;20.956;2022-08-06T01:00:14;95050.22;;;17.63;98.89
22047;BME280;11187;49.412;20.956;2022-08-06T01:03:09;95049.31;;;17.64;98.99
22047;BME280;11187;49.412;20.956;2022-08-06T01:06:03;95053.09;;;17.57;99.36
22047;BME280;11187;49.412;20.956;2022-08-06T01:09:17;95053.19;;;17.56;99.64
22047;BME280;11187;49.412;20.956;2022-08-06T01:12:11;95056.00;;;17.51;99.52
22047;BME280;11187;49.412;20.956;2022-08-06T01:14:57;95055.28;;;17.47;100.00
22047;BME280;11187;49.412;20.956;2022-08-06T01:18:00;95049.34;;;17.45;99.77
22047;BME280;11187;49.412;20.956;2022-08-06T01:28:35;95054.88;;;17.38;100.00
22047;BME280;11187;49.412;20.956;2022-08-06T01:31:21;95049.81;;;17.35;99.95
22047;BME280;11187;49.412;20.956;2022-08-06T01:34:22;95056.75;;;17.34;99.82
22047;BME280;11187;49.412;20.956;2022-08-06T01:37:29;95055.22;;;17.30;100.00
22047;BME280;11187;49.412;20.956;2022-08-06T01:40:31;95054.59;;;17.25;100.00
22047;BME280;11187;49.412;20.956;2022-08-06T01:43:31;95053.81;;;17.23;100.00
22047;BME280;11187;49.412;20.956;2022-08-06T01:46:25;95054.88;;;17.19;100.00
22047;BME280;11187;49.412;20.956;2022-08-06T01:49:12;95055.06;;;17.14;100.00
22047;BME280;11187;49.412;20.956;2022-08-06T01:51:57;95040.47;;;17.13;100.00
22047;BME280;11187;49.412;20.956;2022-08-06T01:54:54;95043.13;;;17.11;100.00
22047;BME280;11187;49.412;20.956;2022-08-06T01:57:36;95045.69;;;17.11;100.00
22047;BME280;11187;49.412;20.956;2022-08-06T02:00:51;95053.63;;;17.08;100.00
22047;BME280;11187;49.412;20.956;2022-08-06T02:03:33;95045.03;;;17.08;100.00
22047;BME280;11187;49.412;20.956;2022-08-06T02:06:39;95052.78;;;17.08;100.00
22047;BME280;11187;49.412;20.956;2022-08-06T02:09:18;95045.06;;;17.06;100.00
22047;BME280;11187;49.412;20.956;2022-08-06T02:12:21;95048.66;;;17.04;100.00
22047;BME280;11187;49.412;20.956;2022-08-06T02:15:06;95041.09;;;16.99;100.00
22047;BME280;11187;49.412;20.956;2022-08-06T02:18:23;95045.56;;;16.96;100.00
22047;BME280;11187;49.412;20.956;2022-08-06T02:21:04;95042.34;;;16.90;100.00
22047;BME280;11187;49.412;20.956;2022-08-06T02:24:12;95048.53;;;16.86;100.00
22047;BME280;11187;49.412;20.956;2022-08-06T02:27:07;95038.34;;;16.83;100.00
22047;BME280;11187;49.412;20.956;2022-08-06T02:29:50;95041.06;;;16.80;100.00
22047;BME280;11187;49.412;20.956;2022-08-06T02:32:46;95042.97;;;16.75;100.00
22047;BME280;11187;49.412;20.956;2022-08-06T02:35:19;95047.38;;;16.73;100.00
22047;BME280;11187;49.412;20.956;2022-08-06T02:38:13;95040.53;;;16.72;100.00
22047;BME280;11187;49.412;20.956;2022-08-06T02:41:21;95044.78;;;16.73;100.00
22047;BME280;11187;49.412;20.956;2022-08-06T02:44:44;95039.81;;;16.68;100.00
22047;BME280;11187;49.412;20.956;2022-08-06T02:47:23;95040.72;;;16.67;100.00
22047;BME280;11187;49.412;20.956;2022-08-06T02:50:37;95039.19;;;16.63;100.00
22047;BME280;11187;49.412;20.956;2022-08-06T02:53:26;95039.25;;;16.62;100.00
22047;BME280;11187;49.412;20.956;2022-08-06T02:56:23;95042.81;;;16.59;100.00
22047;BME280;11187;49.412;20.956;2022-08-06T02:59:18;95038.56;;;16.58;100.00
22047;BME280;11187;49.412;20.956;2022-08-06T03:02:06;95042.13;;;16.56;100.00
22047;BME280;11187;49.412;20.956;2022-08-06T03:05:01;95047.53;;;16.49;100.00
22047;BME280;11187;49.412;20.956;2022-08-06T03:07:38;95050.25;;;16.46;100.00
22047;BME280;11187;49.412;20.956;2022-08-06T03:10:27;95050.44;;;16.42;100.00
22047;BME280;11187;49.412;20.956;2022-08-06T03:13:02;95047.09;;;16.40;100.00
22047;BME280;11187;49.412;20.956;2022-08-06T03:15:51;95044.63;;;16.37;100.00
22047;BME280;11187;49.412;20.956;2022-08-06T03:18:27;95048.13;;;16.36;100.00
22047;BME280;11187;49.412;20.956;2022-08-06T03:21:16;95041.19;;;16.36;100.00
22047;BME280;11187;49.412;20.956;2022-08-06T03:23:50;95045.66;;;16.33;100.00
22047;BME280;11187;49.412;20.956;2022-08-06T03:26:39;95044.91;;;16.31;100.00
22047;BME280;11187;49.412;20.956;2022-08-06T03:29:15;95056.91;;;16.32;100.00
22047;BME280;11187;49.412;20.956;2022-08-06T03:32:02;95056.06;;;16.31;100.00
22047;BME280;11187;49.412;20.956;2022-08-06T03:34:57;95058.75;;;16.28;100.00
22047;BME280;11187;49.412;20.956;2022-08-06T03:38:12;95054.50;;;16.27;100.00
22047;BME280;11187;49.412;20.956;2022-08-06T03:40:46;95059.66;;;16.27;100.00
22047;BME280;11187;49.412;20.956;2022-08-06T03:43:34;95055.44;;;16.26;100.00
22047;BME280;11187;49.412;20.956;2022-08-06T03:46:32;95054.44;;;16.28;100.00
22047;BME280;11187;49.412;20.956;2022-08-06T03:49:48;95056.91;;;16.32;100.00
22047;BME280;11187;49.412;20.956;2022-08-06T03:52:53;95056.94;;;16.30;100.00
22047;BME280;11187;49.412;20.956;2022-08-06T03:55:32;95067.38;;;16.28;100.00
22047;BME280;11187;49.412;20.956;2022-08-06T03:58:21;95071.56;;;16.31;100.00
22047;BME280;11187;49.412;20.956;2022-08-06T04:01:07;95071.56;;;16.31;100.00
22047;BME280;11187;49.412;20.956;2022-08-06T04:04:04;95068.16;;;16.31;100.00
22047;BME280;11187;49.412;20.956;2022-08-06T04:07:06;95069.94;;;16.28;100.00
22047;BME280;11187;49.412;20.956;2022-08-06T04:09:44;95075.22;;;16.25;100.00
22047;BME280;11187;49.412;20.956;2022-08-06T04:12:33;95077.94;;;16.22;100.00
22047;BME280;11187;49.412;20.956;2022-08-06T04:15:35;95083.94;;;16.23;100.00
22047;BME280;11187;49.412;20.956;2022-08-06T04:18:13;95077.81;;;16.25;100.00
22047;BME280;11187;49.412;20.956;2022-08-06T04:21:04;95084.53;;;16.29;100.00
22047;BME280;11187;49.412;20.956;2022-08-06T04:24:01;95084.53;;;16.29;100.00
22047;BME280;11187;49.412;20.956;2022-08-06T04:26:52;95081.94;;;16.29;100.00
22047;BME280;11187;49.412;20.956;2022-08-06T04:29:36;95082.72;;;16.32;100.00
22047;BME280;11187;49.412;20.956;2022-08-06T04:32:38;95084.22;;;16.37;100.00
22047;BME280;11187;49.412;20.956;2022-08-06T04:35:27;95079.72;;;16.42;100.00
22047;BME280;11187;49.412;20.956;2022-08-06T04:38:35;95088.09;;;16.47;100.00
22047;BME280;11187;49.412;20.956;2022-08-06T04:41:30;95085.47;;;16.49;100.00
22047;BME280;11187;49.412;20.956;2022-08-06T04:44:25;95082.59;;;16.55;100.00
22047;BME280;11187;49.412;20.956;2022-08-06T04:47:23;95085.72;;;16.63;100.00
22047;BME280;11187;49.412;20.956;2022-08-06T04:50:19;95089.50;;;16.75;100.00
22047;BME280;11187;49.412;20.956;2022-08-06T04:53:17;95095.81;;;16.90;100.00
22047;BME280;11187;49.412;20.956;2022-08-06T04:56:10;95097.69;;;17.05;100.00
22047;BME280;11187;49.412;20.956;2022-08-06T04:59:17;95093.59;;;17.20;100.00
22047;BME280;11187;49.412;20.956;2022-08-06T05:02:29;95091.03;;;17.39;100.00
22047;BME280;11187;49.412;20.956;2022-08-06T05:05:04;95094.66;;;17.54;100.00
22047;BME280;11187;49.412;20.956;2022-08-06T05:07:54;95089.69;;;17.68;100.00
22047;BME280;11187;49.412;20.956;2022-08-06T05:10:37;95098.53;;;17.83;100.00
22047;BME280;11187;49.412;20.956;2022-08-06T05:13:30;95098.53;;;18.01;100.00
22047;BME280;11187;49.412;20.956;2022-08-06T05:16:09;95096.06;;;18.16;100.00
22047;BME280;11187;49.412;20.956;2022-08-06T05:19:04;95101.28;;;18.34;100.00
22047;BME280;11187;49.412;20.956;2022-08-06T05:21:49;95100.53;;;18.49;100.00
22047;BME280;11187;49.412;20.956;2022-08-06T05:24:51;95102.25;;;18.66;100.00
22047;BME280;11187;49.412;20.956;2022-08-06T05:27:30;95111.91;;;18.82;100.00
22047;BME280;11187;49.412;20.956;2022-08-06T05:30:48;95113.63;;;18.98;99.41
22047;BME280;11187;49.412;20.956;2022-08-06T05:33:28;95107.63;;;19.14;98.67
22047;BME280;11187;49.412;20.956;2022-08-06T05:36:25;95118.91;;;19.30;98.83
22047;BME280;11187;49.412;20.956;2022-08-06T05:38:58;95114.66;;;19.45;99.15
22047;BME280;11187;49.412;20.956;2022-08-06T05:42:12;95117.25;;;19.61;99.38
22047;BME280;11187;49.412;20.956;2022-08-06T05:44:51;95110.53;;;19.74;98.66
22047;BME280;11187;49.412;20.956;2022-08-06T05:47:46;95107.16;;;19.88;98.93
22047;BME280;11187;49.412;20.956;2022-08-06T05:50:48;95107.16;;;20.04;99.79
22047;BME280;11187;49.412;20.956;2022-08-06T05:53:30;95108.16;;;20.17;98.11
22047;BME280;11187;49.412;20.956;2022-08-06T05:56:42;95102.09;;;20.33;97.82
22047;BME280;11187;49.412;20.956;2022-08-06T05:59:27;95108.22;;;20.46;97.11
22047;BME280;11187;49.412;20.956;2022-08-06T06:02:37;95112.59;;;20.61;95.94
22047;BME280;11187;49.412;20.956;2022-08-06T06:05:15;95110.13;;;20.74;95.69
22047;BME280;11187;49.412;20.956;2022-08-06T06:08:23;95119.63;;;20.90;95.01
22047;BME280;11187;49.412;20.956;2022-08-06T06:11:06;95117.03;;;21.04;94.57
22047;BME280;11187;49.412;20.956;2022-08-06T06:14:35;95112.78;;;21.17;94.19
22047;BME280;11187;49.412;20.956;2022-08-06T06:24:07;95123.03;;;21.63;92.57
22047;BME280;11187;49.412;20.956;2022-08-06T06:30:02;95130.69;;;21.94;92.67
22047;BME280;11187;49.412;20.956;2022-08-06T06:36:27;95140.78;;;22.27;91.28
22047;BME280;11187;49.412;20.956;2022-08-06T06:39:36;95131.75;;;22.45;90.25
22047;BME280;11187;49.412;20.956;2022-08-06T06:42:45;95147.78;;;22.66;88.02
22047;BME280;11187;49.412;20.956;2022-08-06T06:48:55;95145.91;;;23.08;87.35
22047;BME280;11187;49.412;20.956;2022-08-06T06:51:40;95159.41;;;23.28;85.36
22047;BME280;11187;49.412;20.956;2022-08-06T06:54:47;95157.28;;;23.46;84.42
22047;BME280;11187;49.412;20.956;2022-08-06T06:57:56;95161.91;;;23.55;83.06
22047;BME280;11187;49.412;20.956;2022-08-06T07:00:36;95160.63;;;23.61;82.67
22047;BME280;11187;49.412;20.956;2022-08-06T07:03:50;95174.44;;;23.63;83.93
22047;BME280;11187;49.412;20.956;2022-08-06T07:06:28;95181.13;;;23.67;82.49
22047;BME280;11187;49.412;20.956;2022-08-06T07:09:25;95181.88;;;23.69;83.37
22047;BME280;11187;49.412;20.956;2022-08-06T07:12:19;95179.47;;;23.79;83.18
22047;BME280;11187;49.412;20.956;2022-08-06T07:15:19;95194.09;;;23.81;82.57
22047;BME280;11187;49.412;20.956;2022-08-06T07:17:56;95204.97;;;23.88;82.44
22047;BME280;11187;49.412;20.956;2022-08-06T07:20:57;95213.00;;;23.97;81.62
22047;BME280;11187;49.412;20.956;2022-08-06T07:23:37;95215.44;;;24.01;80.99
22047;BME280;11187;49.412;20.956;2022-08-06T07:26:31;95230.91;;;24.04;81.18
22047;BME280;11187;49.412;20.956;2022-08-06T07:29:31;95222.22;;;24.03;82.19
22047;BME280;11187;49.412;20.956;2022-08-06T07:32:25;95234.25;;;24.06;81.47
22047;BME280;11187;49.412;20.956;2022-08-06T07:35:13;95239.47;;;24.06;82.63
22047;BME280;11187;49.412;20.956;2022-08-06T07:37:56;95240.41;;;24.05;83.10
22047;BME280;11187;49.412;20.956;2022-08-06T07:40:52;95247.09;;;24.09;82.77
22047;BME280;11187;49.412;20.956;2022-08-06T07:43:48;95253.28;;;24.08;83.26
22047;BME280;11187;49.412;20.956;2022-08-06T07:46:55;95243.56;;;24.10;83.68
22047;BME280;11187;49.412;20.956;2022-08-06T07:50:02;95269.38;;;24.14;83.65
22047;BME280;11187;49.412;20.956;2022-08-06T07:52:42;95267.19;;;24.21;83.57
22047;BME280;11187;49.412;20.956;2022-08-06T07:55:29;95262.22;;;24.29;84.13
22047;BME280;11187;49.412;20.956;2022-08-06T07:58:07;95287.25;;;24.33;83.17
22047;BME280;11187;49.412;20.956;2022-08-06T08:00:55;95280.44;;;24.31;83.13
22047;BME280;11187;49.412;20.956;2022-08-06T08:03:30;95283.06;;;24.31;82.73
22047;BME280;11187;49.412;20.956;2022-08-06T08:06:40;95297.09;;;24.17;82.08
22047;BME280;11187;49.412;20.956;2022-08-06T08:09:16;95290.31;;;24.14;82.25
22047;BME280;11187;49.412;20.956;2022-08-06T08:12:18;95316.88;;;24.08;83.21
22047;BME280;11187;49.412;20.956;2022-08-06T08:15:08;95310.91;;;24.06;82.54
22047;BME280;11187;49.412;20.956;2022-08-06T08:17:54;95314.50;;;24.05;83.27
22047;BME280;11187;49.412;20.956;2022-08-06T08:20:34;95321.59;;;24.03;82.95
22047;BME280;11187;49.412;20.956;2022-08-06T08:23:26;95334.78;;;24.02;82.79
22047;BME280;11187;49.412;20.956;2022-08-06T08:26:16;95340.22;;;23.99;83.00
22047;BME280;11187;49.412;20.956;2022-08-06T08:28:51;95335.72;;;24.01;83.70
22047;BME280;11187;49.412;20.956;2022-08-06T08:31:56;95337.38;;;24.02;82.32
22047;BME280;11187;49.412;20.956;2022-08-06T08:34:55;95340.41;;;23.95;82.92
22047;BME280;11187;49.412;20.956;2022-08-06T08:37:29;95356.97;;;23.96;82.94
22047;BME280;11187;49.412;20.956;2022-08-06T08:40:24;95354.34;;;23.96;82.63
22047;BME280;11187;49.412;20.956;2022-08-06T08:43:25;95369.31;;;23.94;82.42
22047;BME280;11187;49.412;20.956;2022-08-06T08:46:24;95361.56;;;23.92;82.33
22047;BME280;11187;49.412;20.956;2022-08-06T08:49:40;95366.78;;;23.92;81.52
22047;BME280;11187;49.412;20.956;2022-08-06T08:52:37;95358.28;;;23.89;82.84
22047;BME280;11187;49.412;20.956;2022-08-06T08:55:32;95360.91;;;23.89;84.12
22047;BME280;11187;49.412;20.956;2022-08-06T08:58:26;95361.88;;;24.01;83.43
22047;BME280;11187;49.412;20.956;2022-08-06T09:01:36;95373.19;;;24.01;82.97
22047;BME280;11187;49.412;20.956;2022-08-06T09:04:19;95371.78;;;23.95;83.34
22047;BME280;11187;49.412;20.956;2022-08-06T09:07:13;95380.47;;;23.83;83.48
22047;BME280;11187;49.412;20.956;2022-08-06T09:10:15;95386.78;;;23.66;83.76
22047;BME280;11187;49.412;20.956;2022-08-06T09:13:12;95390.28;;;23.52;84.58
22047;BME280;11187;49.412;20.956;2022-08-06T09:15:53;95391.09;;;23.40;84.54
22047;BME280;11187;49.412;20.956;2022-08-06T09:18:59;95394.91;;;23.22;85.19
22047;BME280;11187;49.412;20.956;2022-08-06T09:21:37;95411.25;;;23.11;85.59
22047;BME280;11187;49.412;20.956;2022-08-06T09:24:29;95420.88;;;22.96;86.10
22047;BME280;11187;49.412;20.956;2022-08-06T09:27:13;95425.06;;;22.84;87.36
22047;BME280;11187;49.412;20.956;2022-08-06T09:30:16;95434.59;;;22.71;87.05
22047;BME280;11187;49.412;20.956;2022-08-06T09:33:02;95442.13;;;22.61;87.82
22047;BME280;11187;49.412;20.956;2022-08-06T09:38:49;95439.81;;;22.42;89.00
22047;BME280;11187;49.412;20.956;2022-08-06T09:41:49;95432.63;;;22.31;88.38
22047;BME280;11187;49.412;20.956;2022-08-06T09:44:30;95435.41;;;22.28;89.64
22047;BME280;11187;49.412;20.956;2022-08-06T09:47:19;95440.09;;;22.23;90.22
22047;BME280;11187;49.412;20.956;2022-08-06T09:50:06;95448.03;;;22.20;90.29
22047;BME280;11187;49.412;20.956;2022-08-06T09:53:01;95445.63;;;22.17;90.87
22047;BME280;11187;49.412;20.956;2022-08-06T09:55:51;95444.78;;;22.17;90.63
22047;BME280;11187;49.412;20.956;2022-08-06T09:58:29;95444.88;;;22.15;90.74
22047;BME280;11187;49.412;20.956;2022-08-06T10:01:24;95457.72;;;22.18;92.05
22047;BME280;11187;49.412;20.956;2022-08-06T10:04:25;95462.03;;;22.19;90.64
22047;BME280;11187;49.412;20.956;2022-08-06T10:07:29;95458.72;;;22.16;90.70
22047;BME280;11187;49.412;20.956;2022-08-06T10:10:07;95462.44;;;22.11;90.51
22047;BME280;11187;49.412;20.956;2022-08-06T10:13:25;95464.56;;;22.05;91.34
22047;BME280;11187;49.412;20.956;2022-08-06T10:16:21;95462.16;;;22.02;91.21
22047;BME280;11187;49.412;20.956;2022-08-06T10:19:17;95464.34;;;21.94;91.14
22047;BME280;11187;49.412;20.956;2022-08-06T10:22:17;95467.22;;;21.89;91.83
22047;BME280;11187;49.412;20.956;2022-08-06T10:24:54;95469.25;;;21.84;91.86
22047;BME280;11187;49.412;20.956;2022-08-06T10:27:53;95479.88;;;21.81;91.74
22047;BME280;11187;49.412;20.956;2022-08-06T10:30:27;95473.06;;;21.78;90.83
22047;BME280;11187;49.412;20.956;2022-08-06T10:33:16;95464.56;;;21.75;91.04
22047;BME280;11187;49.412;20.956;2022-08-06T10:36:03;95464.75;;;21.72;91.53
22047;BME280;11187;49.412;20.956;2022-08-06T10:39:01;95465.59;;;21.72;91.80
22047;BME280;11187;49.412;20.956;2022-08-06T10:42:07;95456.69;;;21.76;91.80
22047;BME280;11187;49.412;20.956;2022-08-06T10:45:05;95456.97;;;21.86;90.82
22047;BME280;11187;49.412;20.956;2022-08-06T10:47:59;95453.00;;;21.95;91.52
22047;BME280;11187;49.412;20.956;2022-08-06T10:50:53;95469.97;;;22.02;90.70
22047;BME280;11187;49.412;20.956;2022-08-06T10:53:45;95472.50;;;22.03;89.91
22047;BME280;11187;49.412;20.956;2022-08-06T10:56:39;95466.25;;;22.06;89.87
22047;BME280;11187;49.412;20.956;2022-08-06T10:59:26;95464.50;;;22.06;89.51
22047;BME280;11187;49.412;20.956;2022-08-06T11:05:38;95465.16;;;22.10;89.74
22047;BME280;11187;49.412;20.956;2022-08-06T11:09:02;95474.56;;;22.13;90.33
22047;BME280;11187;49.412;20.956;2022-08-06T11:12:22;95459.41;;;22.19;89.69
22047;BME280;11187;49.412;20.956;2022-08-06T11:14:59;95458.91;;;22.28;89.31
22047;BME280;11187;49.412;20.956;2022-08-06T11:17:54;95468.13;;;22.34;89.06
22047;BME280;11187;49.412;20.956;2022-08-06T11:21:07;95452.19;;;22.39;88.32
22047;BME280;11187;49.412;20.956;2022-08-06T11:24:01;95453.69;;;22.43;86.79
22047;BME280;11187;49.412;20.956;2022-08-06T11:26:37;95475.38;;;22.43;85.64
22047;BME280;11187;49.412;20.956;2022-08-06T11:29:24;95466.72;;;22.43;86.07
22047;BME280;11187;49.412;20.956;2022-08-06T11:33:10;95465.81;;;22.44;86.70
22047;BME280;11187;49.412;20.956;2022-08-06T11:36:04;95464.59;;;22.49;86.49
22047;BME280;11187;49.412;20.956;2022-08-06T11:39:02;95469.19;;;22.60;84.80
22047;BME280;11187;49.412;20.956;2022-08-06T11:42:00;95465.34;;;22.66;86.59
22047;BME280;11187;49.412;20.956;2022-08-06T11:45:00;95471.22;;;22.69;86.67
22047;BME280;11187;49.412;20.956;2022-08-06T11:48:14;95482.41;;;22.71;86.04
22047;BME280;11187;49.412;20.956;2022-08-06T11:54:13;95478.31;;;22.67;86.89
22047;BME280;11187;49.412;20.956;2022-08-06T12:08:18;95492.75;;;22.44;86.78
22047;BME280;11187;49.412;20.956;2022-08-06T12:11:26;95488.63;;;22.40;88.12
22047;BME280;11187;49.412;20.956;2022-08-06T12:14:37;95486.47;;;22.33;86.55
22047;BME280;11187;49.412;20.956;2022-08-06T12:17:20;95494.66;;;22.26;87.79
22047;BME280;11187;49.412;20.956;2022-08-06T12:23:15;95504.00;;;22.15;88.42
22047;BME280;11187;49.412;20.956;2022-08-06T12:26:30;95510.41;;;22.09;88.98
22047;BME280;11187;49.412;20.956;2022-08-06T12:29:29;95500.09;;;22.07;89.08
22047;BME280;11187;49.412;20.956;2022-08-06T12:32:26;95504.81;;;22.01;89.51
22047;BME280;11187;49.412;20.956;2022-08-06T12:38:53;95509.59;;;21.93;89.71
22047;BME280;11187;49.412;20.956;2022-08-06T12:41:34;95507.19;;;21.89;89.97
22047;BME280;11187;49.412;20.956;2022-08-06T12:44:33;95518.72;;;21.85;90.43
22047;BME280;11187;49.412;20.956;2022-08-06T12:47:24;95515.34;;;21.83;90.22
22047;BME280;11187;49.412;20.956;2022-08-06T12:50:35;95512.50;;;21.72;90.47
22047;BME280;11187;49.412;20.956;2022-08-06T12:53:12;95518.66;;;21.71;91.11
22047;BME280;11187;49.412;20.956;2022-08-06T12:56:00;95524.19;;;21.65;90.62
22047;BME280;11187;49.412;20.956;2022-08-06T12:58:54;95522.69;;;21.61;90.85
22047;BME280;11187;49.412;20.956;2022-08-06T13:02:02;95520.34;;;21.56;91.22
22047;BME280;11187;49.412;20.956;2022-08-06T13:05:06;95520.50;;;21.53;91.07
22047;BME280;11187;49.412;20.956;2022-08-06T13:08:09;95524.22;;;21.49;91.40
22047;BME280;11187;49.412;20.956;2022-08-06T13:10:48;95524.28;;;21.47;91.67
22047;BME280;11187;49.412;20.956;2022-08-06T13:13:46;95521.03;;;21.44;92.17
22047;BME280;11187;49.412;20.956;2022-08-06T13:16:42;95521.03;;;21.44;92.68
22047;BME280;11187;49.412;20.956;2022-08-06T13:19:50;95511.50;;;21.43;92.33
22047;BME280;11187;49.412;20.956;2022-08-06T13:22:50;95514.13;;;21.43;92.40
22047;BME280;11187;49.412;20.956;2022-08-06T13:25:24;95513.09;;;21.45;93.05
22047;BME280;11187;49.412;20.956;2022-08-06T13:28:30;95514.03;;;21.44;92.91
22047;BME280;11187;49.412;20.956;2022-08-06T13:31:24;95506.97;;;21.46;92.30
22047;BME280;11187;49.412;20.956;2022-08-06T13:34:23;95503.44;;;21.47;92.60
22047;BME280;11187;49.412;20.956;2022-08-06T13:37:03;95504.97;;;21.52;91.67
22047;BME280;11187;49.412;20.956;2022-08-06T13:39:49;95511.00;;;21.52;91.35
22047;BME280;11187;49.412;20.956;2022-08-06T13:43:07;95514.38;;;21.54;91.84
22047;BME280;11187;49.412;20.956;2022-08-06T13:46:14;95509.84;;;21.58;91.71
22047;BME280;11187;49.412;20.956;2022-08-06T13:49:11;95513.09;;;21.61;91.19
22047;BME280;11187;49.412;20.956;2022-08-06T13:52:06;95510.34;;;21.64;91.87
22047;BME280;11187;49.412;20.956;2022-08-06T13:54:46;95519.00;;;21.65;91.40
22047;BME280;11187;49.412;20.956;2022-08-06T13:57:26;95506.59;;;21.68;91.38
22047;BME280;11187;49.412;20.956;2022-08-06T14:00:16;95513.53;;;21.69;91.42
22047;BME280;11187;49.412;20.956;2022-08-06T14:02:52;95519.38;;;21.73;91.55
22047;BME280;11187;49.412;20.956;2022-08-06T14:05:39;95519.22;;;21.76;91.69
22047;BME280;11187;49.412;20.956;2022-08-06T14:08:14;95506.97;;;21.78;90.49
22047;BME280;11187;49.412;20.956;2022-08-06T14:11:14;95507.78;;;21.79;90.32
22047;BME280;11187;49.412;20.956;2022-08-06T14:13:48;95510.31;;;21.80;90.70
22047;BME280;11187;49.412;20.956;2022-08-06T14:16:34;95510.41;;;21.79;90.47
22047;BME280;11187;49.412;20.956;2022-08-06T14:19:11;95513.75;;;21.81;90.53
22047;BME280;11187;49.412;20.956;2022-08-06T14:22:18;95509.44;;;21.80;90.67
22047;BME280;11187;49.412;20.956;2022-08-06T14:24:51;95519.03;;;21.79;90.44
22047;BME280;11187;49.412;20.956;2022-08-06T14:27:31;95509.56;;;21.78;91.08
22047;BME280;11187;49.412;20.956;2022-08-06T14:30:16;95519.13;;;21.78;90.42
22047;BME280;11187;49.412;20.956;2022-08-06T14:33:05;95521.72;;;21.78;90.70
22047;BME280;11187;49.412;20.956;2022-08-06T14:36:08;95513.06;;;21.77;90.71
22047;BME280;11187;49.412;20.956;2022-08-06T14:38:52;95509.56;;;21.78;90.20
22047;BME280;11187;49.412;20.956;2022-08-06T14:41:59;95514.84;;;21.77;90.41
22047;BME280;11187;49.412;20.956;2022-08-06T14:45:16;95513.19;;;21.76;90.09
22047;BME280;11187;49.412;20.956;2022-08-06T14:48:18;95510.84;;;21.71;90.66
22047;BME280;11187;49.412;20.956;2022-08-06T14:51:12;95516.38;;;21.65;90.52
22047;BME280;11187;49.412;20.956;2022-08-06T14:53:48;95513.19;;;21.60;90.71
22047;BME280;11187;49.412;20.956;2022-08-06T14:56:50;95512.59;;;21.55;91.45
22047;BME280;11187;49.412;20.956;2022-08-06T14:59:54;95508.41;;;21.52;91.30
22047;BME280;11187;49.412;20.956;2022-08-06T15:02:29;95505.97;;;21.49;91.57
22047;BME280;11187;49.412;20.956;2022-08-06T15:05:23;95511.31;;;21.46;91.95
22047;BME280;11187;49.412;20.956;2022-08-06T15:08:40;95509.91;;;21.40;92.40
22047;BME280;11187;49.412;20.956;2022-08-06T15:11:34;95509.06;;;21.40;92.22
22047;BME280;11187;49.412;20.956;2022-08-06T15:14:26;95504.75;;;21.39;92.40
22047;BME280;11187;49.412;20.956;2022-08-06T15:17:17;95513.44;;;21.39;92.07
22047;BME280;11187;49.412;20.956;2022-08-06T15:20:11;95516.19;;;21.36;92.07
22047;BME280;11187;49.412;20.956;2022-08-06T15:23:04;95516.19;;;21.36;92.56
22047;BME280;11187;49.412;20.956;2022-08-06T15:25:38;95517.00;;;21.37;92.76
22047;BME280;11187;49.412;20.956;2022-08-06T15:28:52;95511.81;;;21.37;92.01
22047;BME280;11187;49.412;20.956;2022-08-06T15:31:53;95508.47;;;21.35;92.81
22047;BME280;11187;49.412;20.956;2022-08-06T15:34:43;95506.78;;;21.34;92.85
22047;BME280;11187;49.412;20.956;2022-08-06T15:37:38;95511.16;;;21.33;92.52
22047;BME280;11187;49.412;20.956;2022-08-06T15:40:39;95504.34;;;21.31;92.02
22047;BME280;11187;49.412;20.956;2022-08-06T15:43:34;95517.69;;;21.24;92.66
22047;BME280;11187;49.412;20.956;2022-08-06T15:46:30;95511.91;;;21.19;92.44
22047;BME280;11187;49.412;20.956;2022-08-06T15:49:11;95516.41;;;21.16;93.06
22047;BME280;11187;49.412;20.956;2022-08-06T15:52:18;95517.50;;;21.12;93.56